Time;durP1;ratioP1;P1;durP2;ratioP2;P2;SDS_P1;SDS_P2;PMS_P1;PMS_P2;Temp;Humidity;BMP_temperature;BMP_pressure;BME280_temperature;BME280_humidity;BME280_pressure;Samples;Min_cycle;Max_cycle;Signal;HPM_P1;HPM_P2
2023/10/27 00:02:03;;;;;;;72.80;20.52;;;;;;;;;;5094253;28;20048;-74
2023/10/27 00:04:29;;;;;;;76.88;21.98;;;;;;;;;;5076427;28;20048;-75
2023/10/27 00:06:55;;;;;;;70.47;19.85;;;;;;;;;;5094632;28;20040;-74
2023/10/27 00:09:21;;;;;;;75.82;20.80;;;;;;;;;;5094385;28;20048;-74
2023/10/27 00:11:47;;;;;;;66.30;19.50;;;;;;;;;;5094322;28;20044;-74
2023/10/27 00:14:13;;;;;;;76.60;21.52;;;;;;;;;;5094696;28;20044;-75
2023/10/27 00:16:39;;;;;;;82.72;22.08;;;;;;;;;;5094015;28;20093;-74
2023/10/27 00:19:06;;;;;;;78.00;20.90;;;;;;;;;;5094435;28;20472;-74
2023/10/27 00:21:32;;;;;;;69.03;19.98;;;;;;;;;;5094835;28;20044;-74
2023/10/27 00:23:58;;;;;;;77.63;20.77;;;;;;;;;;5093978;28;20040;-74
2023/10/27 00:26:24;;;;;;;73.72;20.58;;;;;;;;;;5076488;28;20097;-75
2023/10/27 00:28:50;;;;;;;76.32;20.23;;;;;;;;;;5094032;28;20050;-75
2023/10/27 00:31:16;;;;;;;84.68;20.27;;;;;;;;;;5094216;28;20051;-74
2023/10/27 00:33:42;;;;;;;83.35;21.35;;;;;;;;;;5076002;28;20097;-74
2023/10/27 00:36:08;;;;;;;79.18;19.42;;;;;;;;;;5075682;28;20056;-74
2023/10/27 00:38:34;;;;;;;76.82;21.40;;;;;;;;;;5075798;28;20055;-75
2023/10/27 00:41:00;;;;;;;75.30;20.15;;;;;;;;;;5093667;28;20139;-74
2023/10/27 00:43:26;;;;;;;81.53;19.95;;;;;;;;;;5093594;28;20048;-74
2023/10/27 00:45:53;;;;;;;69.60;19.80;;;;;;;;;;5075751;28;20048;-74
2023/10/27 00:48:20;;;;;;;70.90;18.58;;;;;;;;;;5075610;28;20087;-73
2023/10/27 00:50:46;;;;;;;67.95;19.00;;;;;;;;;;5093547;28;20083;-74
2023/10/27 00:53:14;;;;;;;69.82;19.33;;;;;;;;;;5093415;28;20055;-74
2023/10/27 00:55:41;;;;;;;69.43;19.50;;;;;;;;;;5093533;28;20048;-74
2023/10/27 00:58:10;;;;;;;61.10;17.65;;;;;;;;;;5075557;28;20044;-75
2023/10/27 01:00:37;;;;;;;64.70;18.92;;;;;;;;;;5093871;28;20411;-75
2023/10/27 01:03:04;;;;;;;62.92;17.85;;;;;;;;;;5093207;28;20063;-73
2023/10/27 01:05:30;;;;;;;61.92;18.08;;;;;;;;;;5093492;28;20052;-74
2023/10/27 01:07:56;;;;;;;63.47;18.40;;;;;;;;;;5075427;28;20174;-75
2023/10/27 01:10:23;;;;;;;62.92;18.75;;;;;;;;;;5093384;28;20044;-74
2023/10/27 01:12:50;;;;;;;63.07;18.97;;;;;;;;;;5093020;28;20142;-73
2023/10/27 01:15:16;;;;;;;65.20;18.45;;;;;;;;;;5093301;28;20079;-74
2023/10/27 01:17:43;;;;;;;66.83;19.10;;;;;;;;;;5093379;28;20080;-74
2023/10/27 01:20:09;;;;;;;62.75;18.33;;;;;;;;;;5093212;28;20084;-74
2023/10/27 01:22:42;;;;;;;63.45;18.80;;;;;;;;;;5075757;28;20559;-74
2023/10/27 01:25:09;;;;;;;65.45;18.45;;;;;;;;;;5093180;28;20062;-75
2023/10/27 01:27:35;;;;;;;59.57;17.70;;;;;;;;;;5093314;28;20048;-74
2023/10/27 01:30:01;;;;;;;61.55;18.50;;;;;;;;;;5093215;28;20285;-74
2023/10/27 01:32:27;;;;;;;63.95;18.65;;;;;;;;;;5075388;28;20101;-73
2023/10/27 01:34:53;;;;;;;59.70;18.17;;;;;;;;;;5093197;28;20055;-74
2023/10/27 01:37:19;;;;;;;72.38;20.33;;;;;;;;;;5093176;28;20103;-74
2023/10/27 01:39:46;;;;;;;68.80;18.67;;;;;;;;;;5093937;28;20052;-75
2023/10/27 01:42:12;;;;;;;63.33;17.25;;;;;;;;;;5075737;28;20044;-74
2023/10/27 01:44:38;;;;;;;64.55;19.10;;;;;;;;;;5093720;28;20073;-74
2023/10/27 01:47:04;;;;;;;61.72;16.98;;;;;;;;;;5093111;28;20051;-73
2023/10/27 01:49:30;;;;;;;69.25;18.98;;;;;;;;;;5092815;28;20560;-74
2023/10/27 01:51:56;;;;;;;61.70;17.15;;;;;;;;;;5093037;28;20044;-74
2023/10/27 01:54:22;;;;;;;59.65;17.73;;;;;;;;;;5093524;28;20044;-74
2023/10/27 01:56:48;;;;;;;59.42;17.88;;;;;;;;;;5093291;28;20101;-74
2023/10/27 01:59:14;;;;;;;60.42;17.15;;;;;;;;;;5092840;28;20052;-74
2023/10/27 02:01:40;;;;;;;61.05;18.00;;;;;;;;;;5093061;28;20050;-74
2023/10/27 02:04:06;;;;;;;61.03;17.02;;;;;;;;;;5093832;28;20067;-73
2023/10/27 02:06:33;;;;;;;63.03;17.75;;;;;;;;;;5058570;28;20044;-74
2023/10/27 02:08:59;;;;;;;59.03;16.65;;;;;;;;;;5093586;28;20063;-73
2023/10/27 02:11:25;;;;;;;55.13;16.38;;;;;;;;;;5092632;28;20108;-75
2023/10/27 02:13:51;;;;;;;59.83;16.73;;;;;;;;;;5074922;28;20051;-74
2023/10/27 02:16:17;;;;;;;62.67;18.60;;;;;;;;;;5074747;28;20382;-73
2023/10/27 02:18:43;;;;;;;60.65;17.23;;;;;;;;;;5058339;28;20052;-74
2023/10/27 02:21:09;;;;;;;53.33;16.05;;;;;;;;;;5074657;28;20063;-73
2023/10/27 02:23:35;;;;;;;54.75;16.48;;;;;;;;;;5092808;28;20074;-75
2023/10/27 02:26:01;;;;;;;59.65;18.33;;;;;;;;;;5095192;28;20044;-74
2023/10/27 02:28:27;;;;;;;52.78;15.80;;;;;;;;;;5096273;28;20083;-73
2023/10/27 02:30:53;;;;;;;58.70;17.45;;;;;;;;;;5096170;28;20055;-73
2023/10/27 02:33:19;;;;;;;60.33;16.58;;;;;;;;;;5078082;28;20048;-74
2023/10/27 02:35:45;;;;;;;56.22;17.75;;;;;;;;;;5096157;28;20484;-75
2023/10/27 02:38:12;;;;;;;58.37;16.27;;;;;;;;;;5078169;28;20457;-73
2023/10/27 02:40:38;;;;;;;60.63;17.48;;;;;;;;;;5095990;28;20645;-73
2023/10/27 02:43:04;;;;;;;59.03;15.90;;;;;;;;;;5096808;28;20044;-73
2023/10/27 02:45:30;;;;;;;56.65;15.57;;;;;;;;;;5095873;28;20044;-75
2023/10/27 02:47:56;;;;;;;57.22;16.73;;;;;;;;;;5095976;28;20040;-75
2023/10/27 02:50:22;;;;;;;59.35;17.25;;;;;;;;;;5095872;28;20048;-75
2023/10/27 02:52:48;;;;;;;54.33;16.42;;;;;;;;;;5077809;28;20491;-75
2023/10/27 02:55:14;;;;;;;60.67;18.05;;;;;;;;;;5077741;28;20430;-74
2023/10/27 02:57:41;;;;;;;58.45;16.70;;;;;;;;;;5095803;28;20086;-74
2023/10/27 03:00:07;;;;;;;62.67;17.67;;;;;;;;;;5095648;28;20380;-75
2023/10/27 03:02:33;;;;;;;60.85;18.13;;;;;;;;;;5095520;28;20059;-74
2023/10/27 03:04:59;;;;;;;58.20;17.27;;;;;;;;;;5077607;28;20086;-74
2023/10/27 03:07:26;;;;;;;56.42;17.08;;;;;;;;;;5077521;28;20047;-74
2023/10/27 03:09:52;;;;;;;58.35;17.65;;;;;;;;;;5078235;28;20123;-75
2023/10/27 03:12:19;;;;;;;53.53;16.97;;;;;;;;;;5095541;28;20483;-74
2023/10/27 03:14:45;;;;;;;59.80;17.25;;;;;;;;;;5095477;28;20105;-74
2023/10/27 03:17:11;;;;;;;59.13;17.80;;;;;;;;;;5095529;28;20136;-75
2023/10/27 03:19:37;;;;;;;60.53;18.67;;;;;;;;;;5095562;28;20040;-74
2023/10/27 03:22:04;;;;;;;62.55;16.92;;;;;;;;;;5077191;28;20476;-74
2023/10/27 03:24:30;;;;;;;58.45;17.17;;;;;;;;;;5095335;28;20083;-75
2023/10/27 03:26:56;;;;;;;57.45;17.23;;;;;;;;;;5095896;28;20078;-71
2023/10/27 03:29:22;;;;;;;59.20;17.95;;;;;;;;;;5095187;28;20083;-74
2023/10/27 03:31:50;;;;;;;67.55;17.77;;;;;;;;;;5099541;28;20446;-75
2023/10/27 03:34:16;;;;;;;;;;;;;;;;;;5084915;28;20048;-74
2023/10/27 03:36:42;;;;;;;62.03;17.57;;;;;;;;;;5099315;28;19927;-75
2023/10/27 03:39:08;;;;;;;57.23;17.50;;;;;;;;;;5097062;28;20419;-75
2023/10/27 03:41:34;;;;;;;63.00;17.58;;;;;;;;;;5097553;28;20052;-74
2023/10/27 03:44:00;;;;;;;62.72;18.33;;;;;;;;;;5096937;28;20044;-74
2023/10/27 03:46:26;;;;;;;59.55;17.92;;;;;;;;;;5097831;28;20374;-73
2023/10/27 03:48:52;;;;;;;56.08;17.00;;;;;;;;;;5097244;28;20400;-75
2023/10/27 03:51:18;;;;;;;60.92;18.15;;;;;;;;;;5061809;28;20469;-74
2023/10/27 03:53:44;;;;;;;55.85;17.90;;;;;;;;;;5094745;28;20052;-73
2023/10/27 03:56:10;;;;;;;59.92;18.42;;;;;;;;;;5076669;28;20150;-75
2023/10/27 03:58:37;;;;;;;57.08;17.15;;;;;;;;;;5094573;28;20048;-75
2023/10/27 04:01:04;;;;;;;60.88;18.23;;;;;;;;;;5076567;28;20101;-76
2023/10/27 04:03:31;;;;;;;60.17;16.90;;;;;;;;;;5059819;28;20140;-74
2023/10/27 04:05:59;;;;;;;50.05;15.70;;;;;;;;;;5076258;28;20454;-74
2023/10/27 04:08:25;;;;;;;;;;;;;;;;;;5076828;28;20052;-73
2023/10/27 04:10:51;;;;;;;54.22;16.23;;;;;;;;;;5076764;28;19920;-74
2023/10/27 04:13:17;;;;;;;56.80;17.27;;;;;;;;;;5094846;28;20414;-74
2023/10/27 04:15:47;;;;;;;63.13;17.15;;;;;;;;;;5076270;28;20130;-73
2023/10/27 04:18:13;;;;;;;57.78;16.92;;;;;;;;;;5094198;28;20052;-74
2023/10/27 04:20:39;;;;;;;55.78;16.08;;;;;;;;;;5093911;28;20040;-74
2023/10/27 04:23:07;;;;;;;59.92;16.52;;;;;;;;;;5076317;28;20087;-74
2023/10/27 04:25:35;;;;;;;56.50;17.92;;;;;;;;;;5093679;28;20128;-73
2023/10/27 04:28:03;;;;;;;59.47;17.92;;;;;;;;;;5094227;28;20141;-73
2023/10/27 04:30:31;;;;;;;60.80;17.50;;;;;;;;;;5094418;28;20048;-74
2023/10/27 04:32:57;;;;;;;54.33;16.02;;;;;;;;;;5094023;28;20048;-73
2023/10/27 04:35:24;;;;;;;63.23;17.50;;;;;;;;;;5094078;28;20044;-74
2023/10/27 04:37:50;;;;;;;53.58;15.43;;;;;;;;;;5093885;28;20777;-75
2023/10/27 04:40:16;;;;;;;52.58;16.75;;;;;;;;;;5076284;28;20036;-74
2023/10/27 04:42:42;;;;;;;46.87;15.43;;;;;;;;;;5094787;28;20066;-73
2023/10/27 04:45:09;;;;;;;57.10;17.08;;;;;;;;;;5097964;28;20058;-75
2023/10/27 04:47:35;;;;;;;55.63;16.90;;;;;;;;;;5078754;28;20056;-75
2023/10/27 04:50:01;;;;;;;54.28;16.90;;;;;;;;;;5096778;28;20040;-75
2023/10/27 04:52:27;;;;;;;53.60;16.20;;;;;;;;;;5096916;28;20040;-75
2023/10/27 04:54:53;;;;;;;57.03;16.98;;;;;;;;;;5095080;28;20067;-76
2023/10/27 04:57:20;;;;;;;53.08;16.40;;;;;;;;;;5094121;28;20127;-74
2023/10/27 04:59:46;;;;;;;61.83;17.98;;;;;;;;;;5093570;28;20101;-75
2023/10/27 05:02:12;;;;;;;51.75;16.33;;;;;;;;;;5075193;28;20044;-76
2023/10/27 05:04:38;;;;;;;60.97;18.57;;;;;;;;;;5076280;28;20116;-73
2023/10/27 05:07:05;;;;;;;61.45;18.83;;;;;;;;;;5058756;28;20042;-75
2023/10/27 05:09:32;;;;;;;52.28;16.02;;;;;;;;;;5093266;28;20105;-73
2023/10/27 05:11:58;;;;;;;56.22;17.77;;;;;;;;;;5093447;28;20056;-74
2023/10/27 05:14:24;;;;;;;57.65;18.02;;;;;;;;;;5093298;28;20055;-73
2023/10/27 05:16:50;;;;;;;53.65;16.45;;;;;;;;;;5093224;28;20044;-73
2023/10/27 05:19:16;;;;;;;49.17;15.25;;;;;;;;;;5093175;28;20384;-75
2023/10/27 05:21:43;;;;;;;53.33;17.42;;;;;;;;;;5075158;28;20472;-75
2023/10/27 05:24:09;;;;;;;58.63;17.40;;;;;;;;;;5094019;28;20089;-75
2023/10/27 05:26:35;;;;;;;50.50;15.40;;;;;;;;;;5093251;28;20048;-73
2023/10/27 05:29:01;;;;;;;52.95;15.32;;;;;;;;;;5075129;28;20044;-75
2023/10/27 05:31:27;;;;;;;60.60;16.95;;;;;;;;;;5093857;28;20067;-74
2023/10/27 05:33:54;;;;;;;51.97;17.00;;;;;;;;;;5092973;28;20094;-75
2023/10/27 05:36:20;;;;;;;59.08;17.38;;;;;;;;;;5075099;28;20539;-74
2023/10/27 05:38:46;;;;;;;54.75;17.17;;;;;;;;;;5092846;28;20470;-74
2023/10/27 05:41:14;;;;;;;51.00;16.55;;;;;;;;;;5093013;28;20044;-75
2023/10/27 05:43:40;;;;;;;49.53;16.48;;;;;;;;;;5074822;28;20088;-75
2023/10/27 05:46:06;;;;;;;54.85;16.27;;;;;;;;;;5092885;28;20131;-75
2023/10/27 05:48:32;;;;;;;48.55;14.88;;;;;;;;;;5093089;28;20425;-75
2023/10/27 05:50:59;;;;;;;51.28;16.00;;;;;;;;;;5092821;28;20533;-75
2023/10/27 05:53:25;;;;;;;50.03;16.02;;;;;;;;;;5093628;28;20054;-76
2023/10/27 05:55:52;;;;;;;55.17;17.25;;;;;;;;;;5075087;28;20438;-74
2023/10/27 05:58:18;;;;;;;51.20;15.70;;;;;;;;;;5074862;28;20052;-76
2023/10/27 06:00:44;;;;;;;53.15;16.38;;;;;;;;;;5096604;28;20044;-74
2023/10/27 06:03:10;;;;;;;51.03;15.97;;;;;;;;;;5096816;28;20472;-75
2023/10/27 06:05:36;;;;;;;54.53;16.50;;;;;;;;;;5096620;28;20116;-74
2023/10/27 06:08:03;;;;;;;58.38;17.75;;;;;;;;;;5096116;28;20511;-74
2023/10/27 06:10:30;;;;;;;;;;;;;;;;;;5096867;28;20054;-74
2023/10/27 06:12:56;;;;;;;54.63;15.65;;;;;;;;;;5096460;28;20276;-75
2023/10/27 06:15:22;;;;;;;53.20;15.32;;;;;;;;;;5096340;28;20044;-74
2023/10/27 06:17:49;;;;;;;57.03;18.00;;;;;;;;;;5096259;28;20052;-74
2023/10/27 06:20:15;;;;;;;59.67;17.95;;;;;;;;;;5061710;28;20051;-74
2023/10/27 06:22:43;;;;;;;58.97;18.07;;;;;;;;;;5096053;28;20131;-74
2023/10/27 06:25:10;;;;;;;64.20;18.23;;;;;;;;;;5077985;28;20119;-74
2023/10/27 06:27:37;;;;;;;62.47;17.60;;;;;;;;;;5061689;28;20048;-74
2023/10/27 06:30:03;;;;;;;62.58;17.63;;;;;;;;;;5096611;28;20397;-72
2023/10/27 06:32:30;;;;;;;61.45;17.77;;;;;;;;;;5079071;28;20450;-75
2023/10/27 06:34:56;;;;;;;63.95;18.13;;;;;;;;;;5095999;28;20044;-74
2023/10/27 06:37:23;;;;;;;64.10;18.25;;;;;;;;;;5095828;28;20495;-75
2023/10/27 06:39:50;;;;;;;60.85;18.50;;;;;;;;;;5077692;28;20054;-74
2023/10/27 06:42:16;;;;;;;65.38;18.35;;;;;;;;;;5078210;28;20093;-76
2023/10/27 06:44:42;;;;;;;65.90;18.85;;;;;;;;;;5096012;28;20048;-75
2023/10/27 06:47:08;;;;;;;70.05;21.20;;;;;;;;;;5077834;28;20044;-75
2023/10/27 06:49:35;;;;;;;68.60;20.00;;;;;;;;;;5095463;28;20048;-75
2023/10/27 06:52:01;;;;;;;60.38;18.13;;;;;;;;;;5095841;28;20040;-75
2023/10/27 06:54:27;;;;;;;67.80;18.75;;;;;;;;;;5095787;28;20048;-75
2023/10/27 06:56:54;;;;;;;64.95;19.65;;;;;;;;;;5095681;28;20040;-75
2023/10/27 06:59:21;;;;;;;63.97;18.70;;;;;;;;;;5095962;28;20423;-74
2023/10/27 07:01:48;;;;;;;65.72;19.90;;;;;;;;;;5095691;28;20145;-74
2023/10/27 07:04:15;;;;;;;63.97;19.05;;;;;;;;;;5077326;28;20056;-74
2023/10/27 07:06:41;;;;;;;61.80;19.23;;;;;;;;;;5095579;28;20100;-75
2023/10/27 07:09:07;;;;;;;66.75;19.00;;;;;;;;;;5095387;28;20116;-74
2023/10/27 07:11:33;;;;;;;71.93;20.30;;;;;;;;;;5095377;28;20051;-74
2023/10/27 07:13:59;;;;;;;70.75;20.13;;;;;;;;;;5078222;28;20046;-75
2023/10/27 07:16:25;;;;;;;69.07;20.48;;;;;;;;;;5095799;28;20044;-76
2023/10/27 07:18:51;;;;;;;74.88;20.30;;;;;;;;;;5095143;28;20066;-76
2023/10/27 07:21:17;;;;;;;70.10;19.17;;;;;;;;;;5095321;28;20048;-75
2023/10/27 07:23:43;;;;;;;70.15;20.90;;;;;;;;;;5095275;28;20452;-76
2023/10/27 07:26:17;;;;;;;72.53;20.15;;;;;;;;;;5095244;28;20117;-75
2023/10/27 07:28:43;;;;;;;75.63;19.77;;;;;;;;;;5095896;28;20510;-75
2023/10/27 07:31:09;;;;;;;69.47;19.90;;;;;;;;;;5095002;28;20044;-75
2023/10/27 07:33:38;;;;;;;70.72;20.48;;;;;;;;;;5095062;28;20048;-75
2023/10/27 07:36:05;;;;;;;72.22;20.63;;;;;;;;;;5076884;28;20048;-74
2023/10/27 07:38:32;;;;;;;71.07;20.17;;;;;;;;;;5095108;28;20050;-75
2023/10/27 07:40:59;;;;;;;75.22;23.30;;;;;;;;;;5094801;28;20058;-76
2023/10/27 07:43:25;;;;;;;81.50;23.00;;;;;;;;;;5077200;28;20437;-75
2023/10/27 07:45:54;;;;;;;79.50;22.17;;;;;;;;;;5077426;28;20060;-76
2023/10/27 07:48:20;;;;;;;86.13;23.73;;;;;;;;;;5094709;28;20097;-74
2023/10/27 07:50:47;;;;;;;78.30;21.98;;;;;;;;;;5095951;28;20056;-73
2023/10/27 07:53:13;;;;;;;75.35;22.05;;;;;;;;;;5095480;28;20051;-75
2023/10/27 07:55:39;;;;;;;76.10;22.13;;;;;;;;;;5094645;28;20044;-75
2023/10/27 07:58:05;;;;;;;74.78;20.55;;;;;;;;;;5076633;28;20083;-74
2023/10/27 08:00:32;;;;;;;71.20;20.92;;;;;;;;;;5094483;28;20154;-76
2023/10/27 08:02:58;;;;;;;74.00;21.80;;;;;;;;;;5095361;28;20139;-74
2023/10/27 08:05:24;;;;;;;76.40;20.48;;;;;;;;;;5076697;28;20055;-75
2023/10/27 08:07:50;;;;;;;77.05;21.00;;;;;;;;;;5095022;28;20061;-77
2023/10/27 08:10:18;;;;;;;72.53;19.90;;;;;;;;;;5093964;28;20453;-76
2023/10/27 08:12:44;;;;;;;73.35;20.25;;;;;;;;;;5077486;28;20052;-76
2023/10/27 08:15:10;;;;;;;69.18;18.75;;;;;;;;;;5076208;28;20059;-76
2023/10/27 08:17:37;;;;;;;69.88;19.85;;;;;;;;;;5094401;28;20048;-75
2023/10/27 08:20:04;;;;;;;67.53;19.17;;;;;;;;;;5076184;28;20477;-76
2023/10/27 08:22:32;;;;;;;63.10;19.45;;;;;;;;;;5094016;28;20400;-76
2023/10/27 08:24:58;;;;;;;67.55;19.13;;;;;;;;;;5076727;28;20060;-74
2023/10/27 08:27:24;;;;;;;61.97;18.20;;;;;;;;;;5094356;28;20083;-76
2023/10/27 08:29:54;;;;;;;55.75;17.58;;;;;;;;;;5076333;28;20529;-76
2023/10/27 08:32:21;;;;;;;58.22;18.60;;;;;;;;;;5094276;28;20557;-77
2023/10/27 08:34:47;;;;;;;;;;;;;;;;;;5094754;28;20203;-76
2023/10/27 08:37:13;;;;;;;53.10;16.90;;;;;;;;;;5077553;28;20417;-78
2023/10/27 08:39:40;;;;;;;54.40;17.58;;;;;;;;;;5097725;28;20043;-77
2023/10/27 08:42:07;;;;;;;55.47;16.80;;;;;;;;;;5095873;28;20044;-77
2023/10/27 08:44:33;;;;;;;55.83;17.98;;;;;;;;;;5096682;28;20336;-77
2023/10/27 08:46:59;;;;;;;51.63;16.47;;;;;;;;;;5078877;28;20051;-79
2023/10/27 08:49:26;;;;;;;54.45;17.58;;;;;;;;;;5094947;28;20465;-74
2023/10/27 08:51:52;;;;;;;51.20;15.40;;;;;;;;;;5059167;28;20529;-77
2023/10/27 08:54:19;;;;;;;55.35;17.55;;;;;;;;;;5094109;28;20044;-76
2023/10/27 08:56:46;;;;;;;49.83;15.50;;;;;;;;;;5093645;28;20082;-76
2023/10/27 08:59:13;;;;;;;48.95;16.88;;;;;;;;;;5093416;28;20076;-76
2023/10/27 09:01:39;;;;;;;49.25;16.58;;;;;;;;;;5093519;28;20056;-77
2023/10/27 09:04:10;;;;;;;47.60;15.10;;;;;;;;;;5093072;28;20115;-75
2023/10/27 09:06:37;;;;;;;49.65;15.20;;;;;;;;;;5093805;28;20388;-76
2023/10/27 09:09:05;;;;;;;47.63;15.23;;;;;;;;;;5075631;28;20155;-76
2023/10/27 09:11:38;;;;;;;46.58;14.68;;;;;;;;;;5093637;28;20044;-75
2023/10/27 09:14:15;;;;;;;44.35;15.48;;;;;;;;;;5059792;28;20048;-75
2023/10/27 09:16:42;;;;;;;43.63;15.18;;;;;;;;;;5093806;28;20047;-74
2023/10/27 09:19:18;;;;;;;42.53;13.80;;;;;;;;;;5093114;28;20052;-74
2023/10/27 09:21:45;;;;;;;43.83;13.88;;;;;;;;;;5093898;28;20048;-75
2023/10/27 09:24:11;;;;;;;40.78;13.32;;;;;;;;;;5075568;28;20087;-73
2023/10/27 09:26:46;;;;;;;43.55;14.77;;;;;;;;;;5093163;28;20048;-76
2023/10/27 09:29:12;;;;;;;42.78;14.07;;;;;;;;;;5093660;28;20040;-74
2023/10/27 09:31:38;;;;;;;44.28;13.60;;;;;;;;;;5075124;28;20097;-74
2023/10/27 09:34:24;;;;;;;42.13;13.55;;;;;;;;;;5076556;28;20123;-74
2023/10/27 09:36:59;;;;;;;45.08;13.60;;;;;;;;;;5097268;28;20052;-75
2023/10/27 09:39:26;;;;;;;40.70;12.75;;;;;;;;;;5098186;28;20048;-78
2023/10/27 09:41:52;;;;;;;;;;;;;;;;;;5098425;28;20048;-75
2023/10/27 09:44:20;;;;;;;43.88;13.40;;;;;;;;;;5101532;28;19964;-76
2023/10/27 09:46:52;;;;;;;40.30;13.18;;;;;;;;;;5102033;28;20044;-73
2023/10/27 09:49:29;;;;;;;48.30;14.57;;;;;;;;;;5067104;28;20098;-73
2023/10/27 09:51:58;;;;;;;43.05;14.00;;;;;;;;;;5103174;28;20060;-72
2023/10/27 09:54:26;;;;;;;39.70;13.48;;;;;;;;;;5100859;28;20497;-75
2023/10/27 09:56:53;;;;;;;;;;;;;;;;;;5101112;28;20051;-76
2023/10/27 09:59:19;;;;;;;41.33;13.18;;;;;;;;;;5101486;28;19920;-75
2023/10/27 10:01:46;;;;;;;38.97;13.43;;;;;;;;;;5098583;28;20048;-77
2023/10/27 10:04:13;;;;;;;42.47;13.80;;;;;;;;;;5097675;28;20059;-76
2023/10/27 10:06:39;;;;;;;40.25;14.18;;;;;;;;;;5097926;28;20048;-76
2023/10/27 10:09:14;;;;;;;42.97;15.37;;;;;;;;;;5096975;28;20055;-77
2023/10/27 10:11:55;;;;;;;41.30;14.52;;;;;;;;;;5078845;28;20286;-76
2023/10/27 10:14:36;;;;;;;41.78;14.25;;;;;;;;;;5079136;28;20090;-77
2023/10/27 10:17:04;;;;;;;42.33;13.90;;;;;;;;;;5097555;28;20432;-76
2023/10/27 10:19:30;;;;;;;;;;;;;;;;;;5097853;28;20083;-78
2023/10/27 10:21:56;;;;;;;38.17;13.53;;;;;;;;;;5078966;28;19920;-75
2023/10/27 10:24:22;;;;;;;40.80;14.02;;;;;;;;;;5096926;28;20115;-77
2023/10/27 10:27:07;;;;;;;38.83;14.18;;;;;;;;;;5078489;28;20048;-77
2023/10/27 10:29:33;;;;;;;41.50;13.73;;;;;;;;;;5079227;28;20162;-78
2023/10/27 10:32:18;;;;;;;39.47;13.57;;;;;;;;;;5096882;28;20044;-75
2023/10/27 10:35:04;;;;;;;37.85;14.02;;;;;;;;;;5097484;28;20075;-74
2023/10/27 10:37:31;;;;;;;37.15;12.63;;;;;;;;;;5078912;28;20139;-77
2023/10/27 10:40:15;;;;;;;36.75;12.85;;;;;;;;;;5063185;28;20036;-76
2023/10/27 10:43:00;;;;;;;33.08;12.07;;;;;;;;;;5079498;28;20488;-79
2023/10/27 10:45:26;;;;;;;38.15;13.70;;;;;;;;;;5096038;28;20051;-78
2023/10/27 10:47:55;;;;;;;35.83;13.20;;;;;;;;;;5096287;28;20063;-77
2023/10/27 10:50:30;;;;;;;33.90;12.98;;;;;;;;;;5096728;28;20446;-77
2023/10/27 10:53:12;;;;;;;35.20;12.40;;;;;;;;;;5096854;28;20079;-76
2023/10/27 10:55:39;;;;;;;36.33;12.23;;;;;;;;;;5095531;28;20511;-78
2023/10/27 10:58:05;;;;;;;34.50;11.68;;;;;;;;;;5096024;28;20079;-75
2023/10/27 11:00:35;;;;;;;33.20;12.13;;;;;;;;;;5077673;28;20040;-75
2023/10/27 11:03:08;;;;;;;31.63;11.60;;;;;;;;;;5077439;28;20052;-76
2023/10/27 11:05:34;;;;;;;35.13;12.65;;;;;;;;;;5095567;28;20044;-76
2023/10/27 11:08:00;;;;;;;33.53;12.68;;;;;;;;;;5095876;28;20047;-76
2023/10/27 11:10:27;;;;;;;34.85;11.88;;;;;;;;;;5095878;28;20036;-77
2023/10/27 11:12:53;;;;;;;33.75;12.15;;;;;;;;;;5078862;28;20052;-78
2023/10/27 11:15:37;;;;;;;33.30;12.05;;;;;;;;;;5096216;28;20456;-76
2023/10/27 11:18:07;;;;;;;32.05;12.07;;;;;;;;;;5096827;28;20044;-78
2023/10/27 11:20:36;;;;;;;32.22;11.73;;;;;;;;;;5095512;28;20040;-78
2023/10/27 11:23:08;;;;;;;33.63;12.15;;;;;;;;;;5078337;28;20079;-79
2023/10/27 11:25:35;;;;;;;31.95;11.98;;;;;;;;;;5095678;28;20083;-77
2023/10/27 11:28:20;;;;;;;33.55;11.93;;;;;;;;;;5095833;28;20436;-77
2023/10/27 11:31:08;;;;;;;32.40;11.60;;;;;;;;;;5095616;28;20044;-78
2023/10/27 11:33:54;;;;;;;33.42;12.85;;;;;;;;;;5077962;28;20048;-77
2023/10/27 11:36:21;;;;;;;35.50;13.40;;;;;;;;;;5077609;28;20052;-79
2023/10/27 11:38:47;;;;;;;31.97;11.80;;;;;;;;;;5095052;28;20097;-78
2023/10/27 11:41:13;;;;;;;31.88;12.88;;;;;;;;;;5095103;28;20079;-80
2023/10/27 11:43:40;;;;;;;31.13;11.98;;;;;;;;;;5076959;28;20082;-78
2023/10/27 11:46:13;;;;;;;30.38;11.73;;;;;;;;;;5094926;28;20123;-78
2023/10/27 11:48:39;;;;;;;31.23;11.45;;;;;;;;;;5095148;28;20066;-80
2023/10/27 11:51:06;;;;;;;31.27;12.50;;;;;;;;;;5095120;28;20404;-82
2023/10/27 11:53:34;;;;;;;30.85;12.25;;;;;;;;;;5096676;28;20374;-82
2023/10/27 11:56:00;;;;;;;32.75;12.35;;;;;;;;;;5096935;28;20047;-81
2023/10/27 11:58:26;;;;;;;33.65;12.27;;;;;;;;;;5077460;28;20048;-81
2023/10/27 12:00:52;;;;;;;33.27;12.97;;;;;;;;;;5095367;28;20052;-82
2023/10/27 12:03:18;;;;;;;34.90;13.77;;;;;;;;;;5094672;28;20139;-81
2023/10/27 12:05:44;;;;;;;34.05;13.10;;;;;;;;;;5094980;28;20052;-81
2023/10/27 12:08:11;;;;;;;;;;;;;;;;;;5095468;28;20093;-82
2023/10/27 12:10:37;;;;;;;33.70;13.13;;;;;;;;;;5095495;28;19989;-83
2023/10/27 12:13:06;;;;;;;28.33;11.32;;;;;;;;;;5094735;28;20052;-83
2023/10/27 12:15:33;;;;;;;33.67;11.80;;;;;;;;;;5076666;28;20130;-81
2023/10/27 12:17:59;;;;;;;26.27;10.63;;;;;;;;;;5095031;28;20067;-81
2023/10/27 12:20:27;;;;;;;29.98;12.32;;;;;;;;;;5094809;28;20537;-79
2023/10/27 12:22:56;;;;;;;27.98;10.82;;;;;;;;;;5060111;28;20048;-79
2023/10/27 12:25:22;;;;;;;29.45;11.02;;;;;;;;;;5094238;28;20048;-82
2023/10/27 12:27:48;;;;;;;32.70;12.00;;;;;;;;;;5094068;28;20048;-80
2023/10/27 12:30:23;;;;;;;30.48;11.50;;;;;;;;;;5076188;28;20046;-80
2023/10/27 12:32:49;;;;;;;32.50;13.18;;;;;;;;;;5094738;28;20094;-82
2023/10/27 12:35:16;;;;;;;27.83;12.03;;;;;;;;;;5094196;28;20047;-78
2023/10/27 12:37:42;;;;;;;30.92;12.38;;;;;;;;;;5094028;28;20090;-79
2023/10/27 12:40:12;;;;;;;30.42;12.13;;;;;;;;;;5075954;28;20048;-81
2023/10/27 12:42:39;;;;;;;28.08;11.57;;;;;;;;;;5060044;28;20044;-82
2023/10/27 12:45:05;;;;;;;26.47;11.10;;;;;;;;;;5093793;28;20051;-83
2023/10/27 12:47:32;;;;;;;29.35;12.63;;;;;;;;;;5093818;28;20489;-80
2023/10/27 12:50:01;;;;;;;31.05;12.27;;;;;;;;;;5075661;28;20078;-84
2023/10/27 12:52:29;;;;;;;25.67;10.25;;;;;;;;;;5093867;28;20090;-83
2023/10/27 12:54:55;;;;;;;24.98;10.80;;;;;;;;;;5093626;28;20048;-82
2023/10/27 12:57:25;;;;;;;26.13;11.23;;;;;;;;;;5093837;28;20126;-82
2023/10/27 12:59:52;;;;;;;21.80;8.80;;;;;;;;;;5093167;28;20542;-81
2023/10/27 13:02:18;;;;;;;21.90;9.32;;;;;;;;;;5094107;28;20105;-82
2023/10/27 13:04:44;;;;;;;24.05;9.73;;;;;;;;;;5094479;28;20438;-81
2023/10/27 13:07:11;;;;;;;23.63;9.55;;;;;;;;;;5094123;28;20400;-82
2023/10/27 13:09:37;;;;;;;23.65;9.85;;;;;;;;;;5093403;28;20083;-80
2023/10/27 13:12:04;;;;;;;25.02;10.15;;;;;;;;;;5093813;28;20051;-81
2023/10/27 13:14:31;;;;;;;21.23;9.07;;;;;;;;;;5094390;28;20044;-81
2023/10/27 13:16:58;;;;;;;23.35;9.05;;;;;;;;;;5093561;28;20051;-82
2023/10/27 13:19:24;;;;;;;;;;;;;;;;;;5094526;28;20050;-83
2023/10/27 13:21:51;;;;;;;22.10;8.53;;;;;;;;;;5094276;28;19919;-81
2023/10/27 13:24:17;;;;;;;24.67;9.30;;;;;;;;;;5093898;28;20278;-84
2023/10/27 13:26:45;;;;;;;23.63;9.32;;;;;;;;;;5093602;28;20131;-83
2023/10/27 13:29:11;;;;;;;22.73;9.98;;;;;;;;;;5095001;28;20446;-82
2023/10/27 13:31:40;;;;;;;23.77;8.98;;;;;;;;;;5095763;28;20054;-82
2023/10/27 13:34:06;;;;;;;21.77;8.52;;;;;;;;;;5075870;28;20079;-83
2023/10/27 13:36:32;;;;;;;18.83;8.50;;;;;;;;;;5093517;28;20545;-80
2023/10/27 13:38:58;;;;;;;21.38;8.93;;;;;;;;;;5093687;28;20044;-81
2023/10/27 13:41:24;;;;;;;21.25;8.93;;;;;;;;;;5094137;28;20384;-82
2023/10/27 13:43:51;;;;;;;21.13;9.30;;;;;;;;;;5093329;28;20048;-82
2023/10/27 13:46:17;;;;;;;24.15;9.52;;;;;;;;;;5094159;28;20400;-83
2023/10/27 13:48:45;;;;;;;23.45;10.25;;;;;;;;;;5093376;28;20040;-84
2023/10/27 13:51:14;;;;;;;24.95;9.43;;;;;;;;;;5093866;28;20129;-82
2023/10/27 13:53:41;;;;;;;25.05;10.40;;;;;;;;;;5093358;28;20044;-83
2023/10/27 13:56:12;;;;;;;19.10;9.13;;;;;;;;;;5093111;28;20055;-84
2023/10/27 13:58:40;;;;;;;23.08;9.93;;;;;;;;;;5093197;28;20047;-82
2023/10/27 14:01:07;;;;;;;23.40;9.93;;;;;;;;;;5093710;28;20357;-83
2023/10/27 14:03:34;;;;;;;22.27;9.48;;;;;;;;;;5092811;28;20115;-82
2023/10/27 14:06:00;;;;;;;24.23;10.23;;;;;;;;;;5093549;28;20349;-82
2023/10/27 14:08:27;;;;;;;24.25;9.63;;;;;;;;;;5075858;28;20040;-82
2023/10/27 14:10:53;;;;;;;23.73;9.52;;;;;;;;;;5075222;28;20086;-80
2023/10/27 14:13:22;;;;;;;23.88;9.80;;;;;;;;;;5093431;28;20119;-82
2023/10/27 14:15:48;;;;;;;23.83;9.70;;;;;;;;;;5092886;28;20094;-79
2023/10/27 14:18:17;;;;;;;26.90;10.55;;;;;;;;;;5093195;28;20036;-82
2023/10/27 14:20:44;;;;;;;23.75;10.38;;;;;;;;;;5094492;28;20040;-83
2023/10/27 14:23:10;;;;;;;24.33;10.55;;;;;;;;;;5096699;28;20097;-83